createdAt,value
2022-08-23T00:01:25.288Z,61.24
2022-08-23T00:03:54.951Z,60.24
2022-08-23T00:06:24.832Z,60.38
2022-08-23T00:08:54.260Z,61.17
2022-08-23T00:11:28.751Z,60.65
2022-08-23T00:13:56.955Z,60.89
2022-08-23T00:16:26.558Z,60.28
2022-08-23T00:18:54.725Z,59.81
2022-08-23T00:21:23.370Z,60.66
2022-08-23T00:23:51.398Z,59.80
2022-08-23T00:26:20.688Z,60.35
2022-08-23T00:28:49.279Z,60.30
2022-08-23T00:31:17.695Z,59.92
2022-08-23T00:33:47.420Z,60.39
2022-08-23T00:36:15.629Z,60.14
2022-08-23T00:38:43.564Z,60.31
2022-08-23T00:41:11.591Z,60.56
2022-08-23T00:44:00.236Z,60.79
2022-08-23T00:47:01.271Z,61.19
2022-08-23T00:49:32.417Z,60.61
2022-08-23T00:52:07.222Z,60.22
2022-08-23T00:54:37.750Z,60.27
2022-08-23T00:57:10.258Z,60.88
2022-08-23T00:59:38.612Z,60.56
2022-08-23T01:02:07.848Z,60.43
2022-08-23T01:04:41.644Z,60.56
2022-08-23T01:07:17.064Z,60.61
2022-08-23T01:09:48.637Z,60.51
2022-08-23T01:12:32.631Z,60.77
2022-08-23T01:15:06.185Z,60.70
2022-08-23T01:17:39.482Z,60.64
2022-08-23T01:20:13.828Z,60.56
2022-08-23T01:22:49.779Z,60.68
2022-08-23T01:25:23.631Z,60.99
2022-08-23T01:27:52.197Z,60.19
2022-08-23T01:30:24.218Z,60.20
2022-08-23T01:32:56.384Z,59.90
2022-08-23T01:35:31.210Z,60.37
2022-08-23T01:37:59.233Z,60.58
2022-08-23T01:40:32.696Z,60.64
2022-08-23T01:43:02.041Z,60.54
2022-08-23T01:45:31.629Z,60.71
2022-08-23T01:48:00.329Z,60.56
2022-08-23T01:50:30.083Z,61.33
2022-08-23T01:52:58.407Z,60.78
2022-08-23T01:55:29.417Z,60.88
2022-08-23T01:58:01.141Z,60.97
2022-08-23T02:00:34.087Z,60.97
2022-08-23T02:03:02.726Z,61.09
2022-08-23T02:05:32.928Z,61.04
2022-08-23T02:08:22.120Z,61.15
2022-08-23T02:10:53.380Z,61.71
2022-08-23T02:13:21.940Z,61.79
2022-08-23T02:15:51.559Z,61.11
2022-08-23T02:18:21.519Z,60.96
2022-08-23T02:20:52.403Z,60.75
2022-08-23T02:23:21.913Z,60.68
2022-08-23T02:25:50.429Z,61.46
2022-08-23T02:28:20.689Z,61.30
2022-08-23T02:30:48.833Z,61.14
2022-08-23T02:33:18.712Z,61.44
2022-08-23T02:35:49.194Z,61.39
2022-08-23T02:38:18.911Z,60.96
2022-08-23T02:40:53.052Z,61.46
2022-08-23T02:43:31.076Z,61.20
2022-08-23T02:46:01.725Z,61.26
2022-08-23T02:48:32.525Z,62.01
2022-08-23T02:51:07.153Z,61.79
2022-08-23T02:53:35.776Z,61.75
2022-08-23T02:56:21.141Z,61.40
2022-08-23T02:58:54.341Z,61.00
2022-08-23T03:01:26.168Z,62.33
2022-08-23T03:03:57.080Z,61.66
2022-08-23T03:06:26.625Z,61.29
2022-08-23T03:08:55.310Z,61.17
2022-08-23T03:11:25.198Z,62.60
2022-08-23T03:13:56.929Z,61.90
2022-08-23T03:16:25.860Z,61.42
2022-08-23T03:18:54.711Z,61.94
2022-08-23T03:21:23.020Z,62.89
2022-08-23T03:23:51.524Z,62.89
2022-08-23T03:26:19.973Z,62.01
2022-08-23T03:28:48.972Z,62.57
2022-08-23T03:31:20.620Z,62.56
2022-08-23T03:33:58.162Z,62.45
2022-08-23T03:36:27.869Z,63.37
2022-08-23T03:38:57.281Z,63.01
2022-08-23T03:41:26.237Z,62.59
2022-08-23T03:43:54.359Z,62.75
2022-08-23T03:46:24.525Z,62.97
2022-08-23T03:49:00.513Z,62.63
2022-08-23T03:51:35.414Z,62.49
2022-08-23T03:54:04.455Z,63.03
2022-08-23T03:56:35.268Z,62.17
2022-08-23T03:59:06.685Z,62.05
2022-08-23T04:01:36.682Z,63.21
2022-08-23T04:04:05.590Z,62.91
2022-08-23T04:06:38.209Z,63.44
2022-08-23T04:09:15.184Z,63.32
2022-08-23T04:11:44.319Z,63.46
2022-08-23T04:14:16.060Z,63.42
2022-08-23T04:16:45.632Z,63.05
2022-08-23T04:19:16.072Z,63.40
2022-08-23T04:21:58.976Z,63.81
2022-08-23T04:24:31.663Z,63.59
2022-08-23T04:26:59.721Z,64.23
2022-08-23T04:29:34.419Z,63.66
2022-08-23T04:32:07.842Z,63.05
2022-08-23T04:34:45.349Z,62.96
2022-08-23T04:37:17.996Z,63.35
2022-08-23T04:40:04.015Z,63.71
2022-08-23T04:42:41.776Z,63.07
2022-08-23T04:45:11.689Z,63.24
2022-08-23T04:47:46.286Z,63.48
2022-08-23T04:50:15.017Z,62.90
2022-08-23T04:53:08.675Z,63.71
2022-08-23T04:55:43.359Z,64.01
2022-08-23T04:58:14.418Z,64.06
2022-08-23T05:00:51.191Z,63.29
2022-08-23T05:03:24.310Z,64.53
2022-08-23T05:05:53.884Z,63.89
2022-08-23T05:08:26.449Z,63.55
2022-08-23T05:10:55.317Z,64.43
2022-08-23T05:13:25.728Z,64.33
2022-08-23T05:15:54.389Z,64.33
2022-08-23T05:18:28.522Z,63.62
2022-08-23T05:20:56.855Z,64.48
2022-08-23T05:23:32.068Z,64.12
2022-08-23T05:26:15.429Z,63.64
2022-08-23T05:28:45.369Z,63.75
2022-08-23T05:31:18.745Z,64.81
2022-08-23T05:33:57.275Z,64.46
2022-08-23T05:36:55.682Z,64.48
2022-08-23T05:39:36.156Z,64.27
2022-08-23T05:42:08.386Z,63.85
2022-08-23T05:44:37.388Z,64.85
2022-08-23T05:47:11.169Z,64.34
2022-08-23T05:50:01.871Z,64.54
2022-08-23T05:52:33.522Z,64.00
2022-08-23T05:55:02.146Z,65.14
2022-08-23T05:57:43.119Z,63.88
2022-08-23T06:00:14.871Z,64.56
2022-08-23T06:02:53.717Z,63.83
2022-08-23T06:05:23.852Z,64.33
2022-08-23T06:07:52.679Z,63.73
2022-08-23T06:10:24.251Z,63.56
2022-08-23T06:13:00.068Z,63.95
2022-08-23T06:15:34.460Z,63.43
2022-08-23T06:18:03.303Z,63.14
2022-08-23T06:20:33.690Z,63.26
2022-08-23T06:23:08.113Z,63.68
2022-08-23T06:25:38.471Z,63.48
2022-08-23T06:28:17.479Z,63.33
2022-08-23T06:30:45.618Z,62.99
2022-08-23T06:33:14.814Z,63.35
2022-08-23T06:35:54.361Z,62.62
2022-08-23T06:38:28.441Z,62.52
2022-08-23T06:41:17.108Z,63.15
2022-08-23T06:44:04.152Z,62.60
2022-08-23T06:46:34.501Z,62.53
2022-08-23T06:49:05.626Z,62.32
2022-08-23T06:51:37.160Z,62.25
2022-08-23T06:54:17.443Z,62.38
2022-08-23T06:57:02.796Z,62.32
2022-08-23T06:59:34.265Z,62.62
2022-08-23T07:02:16.981Z,62.40
2022-08-23T07:05:00.236Z,61.89
2022-08-23T07:07:50.763Z,61.99
2022-08-23T07:10:19.988Z,62.08
2022-08-23T07:12:49.840Z,61.75
2022-08-23T07:15:21.213Z,62.31
2022-08-23T07:17:53.380Z,61.84
2022-08-23T07:20:25.402Z,61.92
2022-08-23T07:22:54.715Z,61.93
2022-08-23T07:25:31.188Z,61.99
2022-08-23T07:28:07.488Z,61.75
2022-08-23T07:30:44.972Z,61.85
2022-08-23T07:33:16.718Z,61.26
2022-08-23T07:36:10.437Z,61.17
2022-08-23T07:38:40.308Z,61.50
2022-08-23T07:41:08.665Z,61.60
2022-08-23T07:43:37.698Z,61.58
2022-08-23T07:46:07.990Z,61.16
2022-08-23T07:48:53.405Z,61.53
2022-08-23T07:51:26.865Z,61.00
2022-08-23T07:54:00.143Z,61.39
2022-08-23T07:56:29.293Z,61.22
2022-08-23T07:59:09.150Z,61.25
2022-08-23T08:01:57.067Z,61.21
2022-08-23T08:04:26.472Z,60.95
2022-08-23T08:07:17.722Z,60.91
2022-08-23T08:09:48.232Z,61.14
2022-08-23T08:12:19.597Z,61.06
2022-08-23T08:14:50.559Z,60.72
2022-08-23T08:17:27.287Z,60.47
2022-08-23T08:20:20.408Z,60.38
2022-08-23T08:23:18.110Z,60.31
2022-08-23T08:26:28.635Z,60.08
2022-08-23T08:29:01.502Z,59.73
2022-08-23T08:31:30.586Z,59.75
2022-08-23T08:33:58.984Z,59.54
2022-08-23T08:36:36.423Z,59.72
2022-08-23T08:39:10.504Z,59.57
2022-08-23T08:44:41.951Z,58.93
2022-08-23T08:47:16.806Z,58.91
2022-08-23T08:49:50.488Z,58.88
2022-08-23T08:52:31.086Z,58.78
2022-08-23T08:55:06.777Z,58.42
2022-08-23T08:57:40.575Z,58.28
2022-08-23T09:00:14.039Z,58.62
2022-08-23T09:02:45.192Z,57.88
2022-08-23T09:05:17.116Z,57.66
2022-08-23T09:07:58.122Z,57.59
2022-08-23T09:10:58.368Z,57.93
2022-08-23T09:14:06.845Z,57.55
2022-08-23T09:16:49.046Z,57.45
2022-08-23T09:19:17.785Z,57.49
2022-08-23T09:21:49.948Z,57.64
2022-08-23T09:24:17.937Z,57.37
2022-08-23T09:26:56.482Z,56.90
2022-08-23T09:29:28.678Z,57.63
2022-08-23T09:32:03.273Z,57.13
2022-08-23T09:34:43.637Z,57.38
2022-08-23T09:37:19.095Z,57.53
2022-08-23T09:39:52.683Z,56.92
2022-08-23T09:42:36.827Z,56.18
2022-08-23T09:45:10.830Z,56.91
2022-08-23T09:47:44.443Z,56.42
2022-08-23T09:50:25.554Z,56.96
2022-08-23T09:52:59.381Z,56.63
2022-08-23T09:55:33.083Z,56.50
2022-08-23T09:58:03.496Z,56.46
2022-08-23T10:00:34.124Z,56.68
2022-08-23T10:03:29.124Z,56.15
2022-08-23T10:06:06.376Z,56.10
2022-08-23T10:08:43.225Z,56.38
2022-08-23T10:11:18.609Z,55.59
2022-08-23T10:13:51.534Z,56.35
2022-08-23T10:16:34.671Z,56.55
2022-08-23T10:19:24.509Z,56.56
2022-08-23T10:21:59.248Z,56.36
2022-08-23T10:24:42.246Z,56.15
2022-08-23T10:27:43.661Z,56.20
2022-08-23T10:30:14.668Z,55.34
2022-08-23T10:33:03.989Z,54.61
2022-08-23T10:35:53.766Z,55.13
2022-08-23T10:38:40.461Z,55.11
2022-08-23T10:41:35.123Z,55.36
2022-08-23T10:44:24.133Z,55.46
2022-08-23T10:47:03.595Z,54.68
2022-08-23T10:49:35.475Z,54.69
2022-08-23T10:52:14.466Z,54.85
2022-08-23T10:54:59.708Z,54.72
2022-08-23T10:57:35.626Z,54.13
2022-08-23T11:00:15.987Z,53.96
2022-08-23T11:02:57.345Z,53.65
2022-08-23T11:05:32.124Z,52.87
2022-08-23T11:08:09.332Z,53.16
2022-08-23T11:10:53.806Z,53.40
2022-08-23T11:13:35.379Z,52.36
2022-08-23T11:16:14.666Z,51.92
2022-08-23T11:18:47.887Z,52.70
2022-08-23T11:21:52.738Z,52.29
2022-08-23T11:24:50.474Z,51.16
2022-08-23T11:27:37.248Z,51.54
2022-08-23T11:30:47.411Z,52.39
2022-08-23T11:33:23.964Z,52.23
2022-08-23T11:35:56.678Z,51.47
2022-08-23T11:39:02.535Z,51.94
2022-08-23T11:41:35.420Z,52.25
2022-08-23T11:44:28.565Z,52.16
2022-08-23T11:47:06.711Z,51.18
2022-08-23T11:50:07.119Z,51.98
2022-08-23T11:52:59.764Z,51.41
2022-08-23T11:55:59.234Z,51.54
2022-08-23T11:58:47.666Z,51.47
2022-08-23T12:01:21.196Z,51.10
2022-08-23T12:03:58.833Z,50.99
2022-08-23T12:06:42.742Z,52.07
2022-08-23T12:09:55.573Z,51.42
2022-08-23T12:12:39.220Z,51.22
2022-08-23T12:15:14.514Z,51.95
2022-08-23T12:18:19.244Z,51.88
2022-08-23T12:20:51.921Z,51.76
2022-08-23T12:23:22.271Z,51.98
2022-08-23T12:26:10.054Z,52.23
2022-08-23T12:28:51.560Z,51.61
2022-08-23T12:31:36.521Z,51.73
2022-08-23T12:34:24.309Z,51.90
2022-08-23T12:37:03.807Z,51.18
2022-08-23T12:39:41.117Z,51.30
2022-08-23T12:42:16.469Z,50.75
2022-08-23T12:44:47.977Z,49.10
2022-08-23T12:47:42.840Z,48.71
2022-08-23T12:50:28.630Z,48.39
2022-08-23T12:53:09.691Z,49.60
2022-08-23T12:55:57.201Z,49.87
2022-08-23T12:58:33.659Z,49.70
2022-08-23T13:01:10.370Z,49.17
2022-08-23T13:03:49.956Z,49.75
2022-08-23T13:06:25.679Z,50.36
2022-08-23T13:09:00.271Z,48.93
2022-08-23T13:11:35.776Z,49.11
2022-08-23T13:14:26.032Z,49.26
2022-08-23T13:17:13.057Z,49.01
2022-08-23T13:19:42.749Z,48.78
2022-08-23T13:22:12.838Z,47.81
2022-08-23T13:24:43.057Z,49.28
2022-08-23T13:27:22.570Z,48.40
2022-08-23T13:29:53.168Z,49.12
2022-08-23T13:32:40.295Z,49.27
2022-08-23T13:35:36.087Z,47.56
2022-08-23T13:38:20.568Z,48.06
2022-08-23T13:40:57.412Z,48.56
2022-08-23T13:43:28.518Z,48.31
2022-08-23T13:45:59.441Z,47.51
2022-08-23T13:48:31.111Z,48.36
2022-08-23T13:51:29.290Z,48.43
2022-08-23T13:53:59.135Z,47.31
2022-08-23T13:56:29.145Z,46.72
2022-08-23T13:59:01.131Z,47.59
2022-08-23T14:01:30.464Z,47.71
2022-08-23T14:03:58.420Z,47.81
2022-08-23T14:06:26.421Z,46.28
2022-08-23T14:08:55.719Z,46.97
2022-08-23T14:11:23.734Z,46.52
2022-08-23T14:13:52.127Z,47.38
2022-08-23T14:16:35.237Z,47.74
2022-08-23T14:19:16.812Z,47.83
2022-08-23T14:21:56.971Z,47.38
2022-08-23T14:24:27.311Z,46.05
2022-08-23T14:26:56.594Z,46.76
2022-08-23T14:29:27.953Z,46.59
2022-08-23T14:31:57.666Z,45.77
2022-08-23T14:34:26.369Z,47.25
2022-08-23T14:39:43.897Z,47.08
2022-08-23T14:42:14.275Z,47.26
2022-08-23T14:44:42.711Z,47.16
2022-08-23T14:47:10.447Z,46.55
2022-08-23T14:49:38.634Z,47.11
2022-08-23T14:52:06.831Z,46.70
2022-08-23T14:54:35.548Z,46.76
2022-08-23T14:57:05.300Z,47.18
2022-08-23T14:59:33.512Z,47.46
2022-08-23T15:02:01.862Z,46.58
2022-08-23T15:04:30.418Z,46.61
2022-08-23T15:07:19.459Z,46.43
2022-08-23T15:09:48.701Z,47.49
2022-08-23T15:15:09.574Z,47.40
2022-08-23T15:17:48.008Z,47.79
2022-08-23T15:20:16.794Z,47.57
2022-08-23T15:22:55.257Z,46.94
2022-08-23T15:25:25.212Z,47.46
2022-08-23T15:27:54.488Z,47.53
2022-08-23T15:30:24.058Z,46.91
2022-08-23T15:32:56.516Z,47.69
2022-08-23T15:35:25.318Z,47.27
2022-08-23T15:37:54.543Z,47.65
2022-08-23T15:40:22.746Z,47.53
2022-08-23T15:42:50.679Z,47.17
2022-08-23T15:45:19.824Z,46.72
2022-08-23T15:47:51.611Z,47.11
2022-08-23T15:50:22.189Z,47.75
2022-08-23T15:52:50.798Z,47.98
2022-08-23T15:55:19.409Z,48.26
2022-08-23T15:57:49.474Z,48.21
2022-08-23T16:00:22.645Z,48.07
2022-08-23T16:03:18.776Z,48.18
2022-08-23T16:05:42.442Z,48.04
2022-08-23T16:08:18.518Z,48.09
2022-08-23T16:10:46.905Z,48.18
2022-08-23T16:13:15.097Z,47.98
2022-08-23T16:15:44.347Z,48.27
2022-08-23T16:18:12.196Z,48.50
2022-08-23T16:20:40.308Z,48.69
2022-08-23T16:23:08.710Z,48.32
2022-08-23T16:25:37.096Z,47.96
2022-08-23T16:28:05.573Z,48.36
2022-08-23T16:30:33.259Z,48.05
2022-08-23T16:33:03.077Z,48.67
2022-08-23T16:35:31.101Z,48.76
2022-08-23T16:37:58.837Z,48.75
2022-08-23T16:40:27.025Z,48.23
2022-08-23T16:42:56.352Z,48.55
2022-08-23T16:45:26.088Z,48.38
2022-08-23T16:47:55.304Z,48.75
2022-08-23T16:50:24.491Z,48.31
2022-08-23T16:52:52.497Z,48.29
2022-08-23T16:55:21.424Z,48.82
2022-08-23T16:57:49.268Z,48.80
2022-08-23T17:00:18.062Z,48.82
2022-08-23T17:02:47.177Z,48.99
2022-08-23T17:05:18.501Z,48.83
2022-08-23T17:07:49.255Z,48.94
2022-08-23T17:10:19.626Z,49.00
2022-08-23T17:12:50.708Z,48.95
2022-08-23T17:15:23.489Z,49.30
2022-08-23T17:17:51.679Z,49.43
2022-08-23T17:20:22.783Z,49.38
2022-08-23T17:22:52.510Z,49.63
2022-08-23T17:25:20.811Z,49.65
2022-08-23T17:27:50.921Z,49.58
2022-08-23T17:30:21.127Z,49.60
2022-08-23T17:32:49.629Z,49.70
2022-08-23T17:35:20.070Z,49.86
2022-08-23T17:37:48.749Z,50.03
2022-08-23T17:40:21.275Z,50.09
2022-08-23T17:42:50.011Z,49.91
2022-08-23T17:45:18.966Z,50.23
2022-08-23T17:47:47.463Z,49.89
2022-08-23T17:50:16.873Z,50.02
2022-08-23T17:52:45.160Z,50.42
2022-08-23T17:55:17.043Z,50.32
2022-08-23T17:57:48.467Z,50.03
2022-08-23T18:00:20.012Z,50.14
2022-08-23T18:02:48.078Z,50.62
2022-08-23T18:05:16.921Z,50.37
2022-08-23T18:07:45.110Z,50.44
2022-08-23T18:10:14.025Z,50.52
2022-08-23T18:12:42.109Z,50.75
2022-08-23T18:15:12.728Z,50.89
2022-08-23T18:17:41.100Z,51.18
2022-08-23T18:20:11.180Z,51.28
2022-08-23T18:22:40.085Z,51.36
2022-08-23T18:25:10.416Z,51.48
2022-08-23T18:27:56.396Z,51.66
2022-08-23T18:30:26.043Z,51.83
2022-08-23T18:32:54.141Z,51.83
2022-08-23T18:35:22.494Z,51.88
2022-08-23T18:37:53.003Z,52.15
2022-08-23T18:40:21.212Z,51.76
2022-08-23T18:42:49.223Z,52.17
2022-08-23T18:45:17.284Z,52.32
2022-08-23T18:47:48.563Z,52.20
2022-08-23T18:50:17.958Z,52.24
2022-08-23T18:52:45.975Z,52.57
2022-08-23T18:55:14.950Z,52.45
2022-08-23T18:57:43.313Z,52.81
2022-08-23T19:00:12.710Z,52.65
2022-08-23T19:02:40.798Z,52.81
2022-08-23T19:05:10.760Z,52.95
2022-08-23T19:07:38.781Z,53.01
2022-08-23T19:10:07.911Z,53.07
2022-08-23T19:12:36.051Z,53.36
2022-08-23T19:15:04.904Z,53.14
2022-08-23T19:17:33.041Z,53.50
2022-08-23T19:20:01.011Z,53.90
2022-08-23T19:22:30.348Z,53.78
2022-08-23T19:24:58.466Z,53.88
2022-08-23T19:27:26.545Z,53.70
2022-08-23T19:29:54.643Z,53.93
2022-08-23T19:35:31.237Z,54.11
2022-08-23T19:38:03.044Z,54.61
2022-08-23T19:40:31.880Z,54.31
2022-08-23T19:43:22.160Z,54.60
2022-08-23T19:45:51.981Z,55.08
2022-08-23T19:48:23.820Z,54.59
2022-08-23T19:50:53.606Z,54.91
2022-08-23T19:53:41.426Z,55.81
2022-08-23T19:56:11.381Z,55.66
2022-08-23T19:58:39.430Z,55.60
2022-08-23T20:01:09.098Z,55.54
2022-08-23T20:03:42.810Z,56.07
2022-08-23T20:06:18.899Z,55.89
2022-08-23T20:09:14.086Z,56.36
2022-08-23T20:11:42.881Z,56.01
2022-08-23T20:14:14.093Z,56.44
2022-08-23T20:16:50.456Z,56.75
2022-08-23T20:19:40.743Z,56.58
2022-08-23T20:22:30.783Z,56.46
2022-08-23T20:25:00.369Z,57.37
2022-08-23T20:27:30.765Z,57.77
2022-08-23T20:29:59.865Z,57.12
2022-08-23T20:32:28.474Z,56.96
2022-08-23T20:34:56.809Z,57.74
2022-08-23T20:37:25.873Z,57.58
2022-08-23T20:39:55.171Z,57.17
2022-08-23T20:42:31.799Z,58.40
2022-08-23T20:45:00.547Z,58.19
2022-08-23T20:47:28.840Z,57.56
2022-08-23T20:49:57.541Z,57.56
2022-08-23T20:52:25.695Z,57.53
2022-08-23T20:54:54.302Z,57.82
2022-08-23T20:57:22.959Z,57.59
2022-08-23T20:59:53.355Z,57.79
2022-08-23T21:02:22.279Z,58.30
2022-08-23T21:04:57.125Z,58.29
2022-08-23T21:07:26.998Z,58.12
2022-08-23T21:09:56.990Z,58.30
2022-08-23T21:12:26.570Z,58.72
2022-08-23T21:14:58.143Z,58.57
2022-08-23T21:17:27.037Z,58.53
2022-08-23T21:19:56.216Z,59.31
2022-08-23T21:22:32.267Z,58.85
2022-08-23T21:25:00.774Z,58.52
2022-08-23T21:27:37.631Z,58.92
2022-08-23T21:30:08.647Z,58.87
2022-08-23T21:32:37.144Z,58.84
2022-08-23T21:35:06.373Z,59.17
2022-08-23T21:37:35.965Z,59.25
2022-08-23T21:40:06.127Z,59.29
2022-08-23T21:42:35.351Z,59.20
2022-08-23T21:45:06.203Z,59.17
2022-08-23T21:47:37.851Z,60.02
2022-08-23T21:50:07.403Z,59.34
2022-08-23T21:52:36.892Z,59.90
2022-08-23T21:55:06.797Z,59.89
2022-08-23T21:57:36.036Z,60.03
2022-08-23T22:00:07.708Z,59.60
2022-08-23T22:02:44.681Z,60.51
2022-08-23T22:05:13.777Z,59.99
2022-08-23T22:07:42.757Z,60.47
2022-08-23T22:10:11.481Z,59.90
2022-08-23T22:12:40.317Z,60.57
2022-08-23T22:15:09.366Z,61.29
2022-08-23T22:17:38.767Z,60.67
2022-08-23T22:20:12.914Z,60.73
2022-08-23T22:22:44.378Z,60.42
2022-08-23T22:25:13.706Z,60.31
2022-08-23T22:27:42.258Z,60.57
2022-08-23T22:30:12.345Z,61.25
2022-08-23T22:32:44.266Z,60.63
2022-08-23T22:35:16.631Z,61.98
2022-08-23T22:38:10.270Z,61.70
2022-08-23T22:40:35.835Z,61.49
2022-08-23T22:43:03.879Z,61.03
2022-08-23T22:45:31.866Z,61.53
2022-08-23T22:48:00.264Z,63.05
2022-08-23T22:50:29.640Z,62.76
2022-08-23T22:52:57.904Z,62.70
2022-08-23T22:55:26.528Z,63.32
2022-08-23T22:57:54.694Z,62.32
2022-08-23T23:00:26.264Z,62.70
2022-08-23T23:02:57.555Z,61.86
2022-08-23T23:05:27.174Z,62.00
2022-08-23T23:08:15.839Z,62.62
2022-08-23T23:10:43.973Z,62.75
2022-08-23T23:13:11.883Z,62.85
2022-08-23T23:15:40.362Z,63.09
2022-08-23T23:18:08.966Z,63.15
2022-08-23T23:20:39.375Z,63.20
2022-08-23T23:23:10.417Z,63.59
2022-08-23T23:25:41.721Z,63.32
2022-08-23T23:28:09.883Z,62.75
2022-08-23T23:30:38.585Z,63.46
2022-08-23T23:33:07.760Z,63.03
2022-08-23T23:35:36.853Z,63.15
2022-08-23T23:38:05.308Z,63.55
2022-08-23T23:40:35.818Z,63.08
2022-08-23T23:43:05.461Z,63.01
2022-08-23T23:45:34.173Z,63.12
2022-08-23T23:48:02.596Z,63.25
2022-08-23T23:50:32.082Z,63.46
2022-08-23T23:53:02.600Z,63.24
2022-08-23T23:55:30.635Z,63.34
2022-08-23T23:58:00.482Z,64.30
